createdAt,value
2018-06-21T00:00:40.072Z,0.00
2018-06-21T00:01:40.301Z,0.00
2018-06-21T00:02:40.538Z,0.00
2018-06-21T00:03:40.771Z,0.00
2018-06-21T00:04:41.006Z,0.00
2018-06-21T00:05:41.235Z,0.00
2018-06-21T00:06:41.470Z,0.00
2018-06-21T00:07:41.704Z,0.00
2018-06-21T00:08:41.947Z,0.00
2018-06-21T00:09:42.177Z,0.00
2018-06-21T00:10:42.414Z,0.00
2018-06-21T00:11:42.646Z,0.00
2018-06-21T00:12:42.884Z,0.00
2018-06-21T00:13:43.110Z,0.00
2018-06-21T00:14:43.335Z,0.00
2018-06-21T00:15:43.564Z,0.00
2018-06-21T00:16:43.797Z,0.00
2018-06-21T00:17:44.026Z,0.00
2018-06-21T00:18:44.256Z,0.00
2018-06-21T00:19:44.487Z,0.00
2018-06-21T00:20:44.721Z,0.00
2018-06-21T00:21:44.953Z,0.00
2018-06-21T00:22:45.180Z,0.00
2018-06-21T00:23:45.411Z,0.00
2018-06-21T00:24:45.638Z,0.00
2018-06-21T00:25:45.875Z,0.00
2018-06-21T00:26:46.109Z,0.00
2018-06-21T00:27:46.336Z,0.00
2018-06-21T00:28:46.570Z,0.00
2018-06-21T00:29:46.803Z,0.00
2018-06-21T00:30:47.017Z,0.00
2018-06-21T00:31:47.259Z,0.00
2018-06-21T00:32:47.481Z,0.00
2018-06-21T00:33:47.719Z,0.00
2018-06-21T00:34:47.944Z,0.00
2018-06-21T00:35:48.178Z,0.00
2018-06-21T00:36:48.409Z,0.00
2018-06-21T00:37:48.636Z,0.00
2018-06-21T00:38:48.868Z,0.00
2018-06-21T00:39:49.101Z,0.00
2018-06-21T00:40:49.331Z,0.00
2018-06-21T00:41:49.560Z,0.00
2018-06-21T00:42:49.794Z,0.00
2018-06-21T00:43:50.023Z,0.00
2018-06-21T00:44:50.253Z,0.00
2018-06-21T00:45:50.482Z,0.00
2018-06-21T00:46:50.708Z,0.00
2018-06-21T00:47:50.942Z,0.00
2018-06-21T00:48:51.173Z,0.00
2018-06-21T00:49:51.404Z,0.00
2018-06-21T00:50:51.634Z,0.00
2018-06-21T00:51:51.868Z,0.00
2018-06-21T00:52:52.095Z,0.00
2018-06-21T00:53:52.328Z,0.00
2018-06-21T00:54:52.547Z,0.00
2018-06-21T00:55:52.776Z,0.00
2018-06-21T00:56:52.999Z,0.00
2018-06-21T00:57:53.231Z,0.00
2018-06-21T00:58:53.459Z,0.00
2018-06-21T00:59:53.691Z,0.00
2018-06-21T01:00:53.924Z,0.00
2018-06-21T01:01:54.155Z,0.00
2018-06-21T01:02:54.382Z,0.00
2018-06-21T01:03:54.615Z,0.00
2018-06-21T01:04:54.850Z,0.00
2018-06-21T01:05:55.081Z,0.00
2018-06-21T01:06:55.314Z,0.00
2018-06-21T01:07:55.542Z,0.00
2018-06-21T01:08:55.780Z,0.00
2018-06-21T01:09:56.011Z,0.00
2018-06-21T01:10:56.241Z,0.00
2018-06-21T01:11:56.479Z,0.00
2018-06-21T01:12:56.699Z,0.00
2018-06-21T01:13:56.939Z,0.00
2018-06-21T01:14:57.170Z,0.00
2018-06-21T01:15:57.397Z,0.00
2018-06-21T01:16:57.632Z,0.00
2018-06-21T01:17:57.855Z,0.00
2018-06-21T01:18:58.088Z,0.00
2018-06-21T01:19:58.317Z,0.00
2018-06-21T01:20:58.547Z,0.00
2018-06-21T01:21:58.776Z,0.00
2018-06-21T01:22:59.007Z,0.00
2018-06-21T01:23:59.238Z,0.00
2018-06-21T01:24:59.467Z,0.00
2018-06-21T01:25:59.698Z,0.00
2018-06-21T01:26:59.928Z,0.00
2018-06-21T01:28:00.165Z,0.00
2018-06-21T01:29:00.386Z,0.00
2018-06-21T01:30:00.620Z,0.00
2018-06-21T01:31:00.854Z,0.00
2018-06-21T01:32:01.093Z,0.00
2018-06-21T01:33:01.319Z,0.00
2018-06-21T01:34:01.547Z,0.00
2018-06-21T01:35:01.777Z,0.00
2018-06-21T01:36:02.007Z,0.00
2018-06-21T01:37:02.234Z,0.00
2018-06-21T01:38:02.465Z,0.00
2018-06-21T01:39:02.696Z,0.00
2018-06-21T01:40:02.927Z,0.00
2018-06-21T01:41:03.156Z,0.00
2018-06-21T01:42:03.388Z,0.00
2018-06-21T01:43:03.617Z,0.00
2018-06-21T01:44:03.847Z,0.00
2018-06-21T01:45:04.082Z,0.00
2018-06-21T01:46:04.313Z,0.00
2018-06-21T01:47:04.548Z,0.00
2018-06-21T01:48:04.780Z,0.00
2018-06-21T01:49:05.007Z,0.00
2018-06-21T01:50:05.234Z,0.00
2018-06-21T01:51:05.465Z,0.00
2018-06-21T01:52:05.695Z,0.00
2018-06-21T01:53:05.925Z,0.00
2018-06-21T01:54:06.159Z,0.00
2018-06-21T01:55:06.387Z,0.00
2018-06-21T01:56:06.620Z,0.00
2018-06-21T01:57:06.851Z,0.00
2018-06-21T01:58:07.083Z,0.00
2018-06-21T01:59:07.312Z,0.00
2018-06-21T02:00:07.543Z,0.00
2018-06-21T02:01:07.775Z,0.00
2018-06-21T02:02:08.003Z,0.00
2018-06-21T02:03:08.233Z,0.00
2018-06-21T02:04:08.464Z,0.00
2018-06-21T02:05:08.698Z,0.00
2018-06-21T02:06:08.929Z,0.00
2018-06-21T02:07:09.146Z,0.00
2018-06-21T02:08:09.436Z,0.00
2018-06-21T02:09:09.604Z,0.00
2018-06-21T02:10:09.832Z,0.00
2018-06-21T02:11:10.065Z,0.00
2018-06-21T02:12:10.294Z,0.00
2018-06-21T02:13:10.524Z,0.00
2018-06-21T02:14:10.759Z,0.00
2018-06-21T02:15:10.991Z,4.00
2018-06-21T02:16:11.223Z,4.00
2018-06-21T02:17:11.449Z,4.00
2018-06-21T02:18:11.681Z,0.00
2018-06-21T02:19:11.911Z,0.00
2018-06-21T02:20:12.144Z,4.00
2018-06-21T02:21:12.373Z,4.00
2018-06-21T02:22:12.607Z,0.00
2018-06-21T02:23:12.838Z,4.00
2018-06-21T02:24:13.070Z,8.00
2018-06-21T02:25:13.298Z,4.00
2018-06-21T02:26:13.533Z,4.00
2018-06-21T02:27:13.767Z,8.00
2018-06-21T02:28:13.996Z,8.00
2018-06-21T02:29:14.228Z,8.00
2018-06-21T02:30:14.457Z,8.00
2018-06-21T02:31:14.689Z,12.00
2018-06-21T02:32:14.921Z,12.00
2018-06-21T02:33:15.152Z,12.00
2018-06-21T02:34:15.453Z,16.00
2018-06-21T02:35:15.614Z,12.00
2018-06-21T02:36:15.847Z,12.00
2018-06-21T02:37:16.076Z,16.00
2018-06-21T02:38:16.305Z,20.00
2018-06-21T02:39:16.540Z,20.00
2018-06-21T02:40:16.773Z,20.00
2018-06-21T02:41:17.002Z,24.00
2018-06-21T02:42:17.235Z,24.00
2018-06-21T02:43:17.467Z,32.00
2018-06-21T02:44:17.699Z,32.00
2018-06-21T02:45:17.923Z,36.00
2018-06-21T02:46:18.152Z,36.00
2018-06-21T02:47:18.377Z,44.00
2018-06-21T02:48:18.608Z,48.00
2018-06-21T02:49:18.837Z,56.00
2018-06-21T02:50:19.069Z,64.00
2018-06-21T02:51:19.299Z,76.00
2018-06-21T02:52:19.529Z,84.00
2018-06-21T02:53:19.762Z,96.00
2018-06-21T02:54:19.991Z,108.00
2018-06-21T02:55:20.220Z,120.00
2018-06-21T02:56:20.450Z,140.00
2018-06-21T02:57:20.683Z,156.00
2018-06-21T02:58:20.910Z,176.00
2018-06-21T02:59:21.147Z,200.00
2018-06-21T03:00:21.368Z,220.00
2018-06-21T03:01:21.602Z,240.00
2018-06-21T03:02:21.838Z,260.00
2018-06-21T03:03:22.065Z,280.00
2018-06-21T03:04:22.295Z,304.00
2018-06-21T03:05:22.570Z,328.00
2018-06-21T03:06:22.755Z,352.00
2018-06-21T03:07:22.982Z,380.00
2018-06-21T03:08:23.213Z,412.00
2018-06-21T03:09:23.444Z,444.00
2018-06-21T03:10:23.676Z,472.00
2018-06-21T03:11:23.919Z,504.00
2018-06-21T03:12:24.141Z,536.00
2018-06-21T03:13:24.369Z,572.00
2018-06-21T03:14:24.626Z,612.00
2018-06-21T03:15:24.875Z,660.00
2018-06-21T03:16:25.102Z,708.00
2018-06-21T03:17:25.345Z,760.00
2018-06-21T03:18:25.567Z,816.00
2018-06-21T03:19:25.793Z,872.00
2018-06-21T03:20:26.027Z,928.00
2018-06-21T03:21:26.256Z,992.00
2018-06-21T03:22:26.487Z,1064.00
2018-06-21T03:23:26.716Z,1136.00
2018-06-21T03:24:26.949Z,1212.00
2018-06-21T03:25:27.184Z,1288.00
2018-06-21T03:26:27.414Z,1364.00
2018-06-21T03:27:27.644Z,1444.00
2018-06-21T03:28:27.881Z,1528.00
2018-06-21T03:29:28.108Z,1624.00
2018-06-21T03:30:28.341Z,1724.00
2018-06-21T03:31:28.573Z,1904.00
2018-06-21T03:32:28.801Z,2040.00
2018-06-21T03:33:29.030Z,2144.00
2018-06-21T03:34:29.264Z,2240.00
2018-06-21T03:35:29.501Z,2352.00
2018-06-21T03:36:29.724Z,2496.00
2018-06-21T03:37:29.957Z,2720.00
2018-06-21T03:38:30.188Z,2872.00
2018-06-21T03:39:30.420Z,2892.00
2018-06-21T03:40:30.649Z,2992.00
2018-06-21T03:41:30.881Z,3128.00
2018-06-21T03:42:31.114Z,3288.00
2018-06-21T03:43:31.343Z,3536.00
2018-06-21T03:44:31.576Z,3700.00
2018-06-21T03:45:31.810Z,4112.00
2018-06-21T03:46:32.036Z,5648.00
2018-06-21T03:47:32.268Z,7304.00
2018-06-21T03:48:32.500Z,7736.00
2018-06-21T03:49:32.737Z,8980.00
2018-06-21T03:50:32.965Z,11080.00
2018-06-21T03:51:33.194Z,14464.00
2018-06-21T03:52:33.428Z,15904.00
2018-06-21T03:53:33.649Z,16160.00
2018-06-21T03:54:33.882Z,16512.00
2018-06-21T03:55:34.113Z,16992.00
2018-06-21T03:56:34.343Z,17664.00
2018-06-21T03:57:34.577Z,18688.00
2018-06-21T03:58:34.809Z,19936.00
2018-06-21T03:59:35.035Z,20768.00
2018-06-21T04:00:35.268Z,21408.00
2018-06-21T04:01:35.498Z,19200.00
2018-06-21T04:02:35.732Z,13056.00
2018-06-21T04:03:35.964Z,18848.00
2018-06-21T04:04:36.192Z,22976.00
2018-06-21T04:05:36.431Z,24320.00
2018-06-21T04:06:36.660Z,25440.00
2018-06-21T04:07:36.894Z,26304.00
2018-06-21T04:08:37.126Z,27072.00
2018-06-21T04:09:37.359Z,27296.00
2018-06-21T04:10:37.594Z,27616.00
2018-06-21T04:11:37.827Z,27392.00
2018-06-21T04:12:38.064Z,26944.00
2018-06-21T04:13:38.300Z,28448.00
2018-06-21T04:14:38.530Z,30080.00
2018-06-21T04:15:38.765Z,30848.00
2018-06-21T04:16:38.998Z,31072.00
2018-06-21T04:17:39.237Z,31072.00
2018-06-21T04:18:39.468Z,30912.00
2018-06-21T04:19:39.704Z,29760.00
2018-06-21T04:20:39.938Z,22144.00
2018-06-21T04:21:40.174Z,9192.00
2018-06-21T04:22:40.410Z,17664.00
2018-06-21T04:23:40.649Z,28640.00
2018-06-21T04:24:40.884Z,31232.00
2018-06-21T04:25:41.121Z,24064.00
2018-06-21T04:26:41.357Z,26848.00
2018-06-21T04:27:41.596Z,30624.00
2018-06-21T04:28:41.832Z,34016.00
2018-06-21T04:29:42.075Z,34080.00
2018-06-21T04:30:42.305Z,34208.00
2018-06-21T04:31:42.544Z,34048.00
2018-06-21T04:32:42.784Z,33152.00
2018-06-21T04:33:43.020Z,26304.00
2018-06-21T04:34:43.259Z,28480.00
2018-06-21T04:35:43.496Z,31584.00
2018-06-21T04:36:43.739Z,32704.00
2018-06-21T04:37:43.971Z,32160.00
2018-06-21T04:38:44.208Z,31776.00
2018-06-21T04:39:44.446Z,31456.00
2018-06-21T04:40:44.683Z,32128.00
2018-06-21T04:41:44.924Z,32704.00
2018-06-21T04:42:45.159Z,33600.00
2018-06-21T04:43:45.397Z,33760.00
2018-06-21T04:44:45.640Z,32896.00
2018-06-21T04:45:45.909Z,30560.00
2018-06-21T04:46:46.127Z,30944.00
2018-06-21T04:47:46.352Z,30560.00
2018-06-21T04:48:46.592Z,30880.00
2018-06-21T04:49:46.831Z,31616.00
2018-06-21T04:50:47.075Z,32448.00
2018-06-21T04:51:47.311Z,32352.00
2018-06-21T04:52:47.549Z,33088.00
2018-06-21T04:53:47.792Z,32768.00
2018-06-21T04:54:48.028Z,31200.00
2018-06-21T04:55:48.267Z,31264.00
2018-06-21T04:56:48.507Z,30112.00
2018-06-21T04:57:48.750Z,31808.00
2018-06-21T04:58:48.989Z,32576.00
2018-06-21T04:59:49.232Z,33728.00
2018-06-21T05:00:49.472Z,33088.00
2018-06-21T05:01:49.714Z,33120.00
2018-06-21T05:02:49.956Z,32288.00
2018-06-21T05:03:50.192Z,32896.00
2018-06-21T05:04:50.434Z,32384.00
2018-06-21T05:05:50.684Z,32032.00
2018-06-21T05:06:50.919Z,31456.00
2018-06-21T05:07:51.156Z,30880.00
2018-06-21T05:08:51.399Z,30624.00
2018-06-21T05:09:51.640Z,31008.00
2018-06-21T05:10:51.888Z,31296.00
2018-06-21T05:11:52.126Z,31168.00
2018-06-21T05:12:52.366Z,31776.00
2018-06-21T05:13:52.607Z,31776.00
2018-06-21T05:14:52.849Z,31168.00
2018-06-21T05:15:53.091Z,31200.00
2018-06-21T05:16:53.331Z,30944.00
2018-06-21T05:17:53.573Z,31296.00
2018-06-21T05:18:53.812Z,30848.00
2018-06-21T05:19:54.055Z,30240.00
2018-06-21T05:20:54.295Z,29760.00
2018-06-21T05:21:54.540Z,28864.00
2018-06-21T05:22:54.781Z,28288.00
2018-06-21T05:23:55.020Z,28544.00
2018-06-21T05:24:55.264Z,27744.00
2018-06-21T05:25:55.504Z,26752.00
2018-06-21T05:26:55.748Z,27104.00
2018-06-21T05:27:55.990Z,27040.00
2018-06-21T05:28:56.229Z,26784.00
2018-06-21T05:29:56.471Z,26880.00
2018-06-21T05:30:56.715Z,27392.00
2018-06-21T05:31:57.029Z,27584.00
2018-06-21T05:32:57.197Z,27840.00
2018-06-21T05:33:57.441Z,26496.00
2018-06-21T05:34:57.683Z,26656.00
2018-06-21T05:35:57.925Z,24352.00
2018-06-21T05:36:58.167Z,23552.00
2018-06-21T05:37:58.414Z,25408.00
2018-06-21T05:38:58.653Z,26272.00
2018-06-21T05:39:58.896Z,27328.00
2018-06-21T05:40:59.137Z,28992.00
2018-06-21T05:41:59.383Z,29088.00
2018-06-21T05:42:59.623Z,28320.00
2018-06-21T05:43:59.868Z,25696.00
2018-06-21T05:45:00.107Z,25440.00
2018-06-21T05:46:00.347Z,14424.00
2018-06-21T05:47:00.591Z,27264.00
2018-06-21T05:48:00.830Z,26560.00
2018-06-21T05:49:01.075Z,20960.00
2018-06-21T05:50:01.317Z,11508.00
2018-06-21T05:51:01.565Z,11724.00
2018-06-21T05:52:01.805Z,10604.00
2018-06-21T05:53:02.044Z,10948.00
2018-06-21T05:54:02.287Z,10856.00
2018-06-21T05:55:02.529Z,11140.00
2018-06-21T05:56:02.770Z,14368.00
2018-06-21T05:57:03.015Z,14688.00
2018-06-21T05:58:03.256Z,10372.00
2018-06-21T05:59:03.497Z,12352.00
2018-06-21T06:00:03.740Z,11980.00
2018-06-21T06:01:03.979Z,15584.00
2018-06-21T06:02:04.243Z,13012.00
2018-06-21T06:03:04.463Z,11236.00
2018-06-21T06:04:04.702Z,19424.00
2018-06-21T06:05:04.945Z,23552.00
2018-06-21T06:06:05.187Z,11936.00
2018-06-21T06:07:05.431Z,22368.00
2018-06-21T06:08:05.667Z,22976.00
2018-06-21T06:09:05.907Z,14416.00
2018-06-21T06:10:06.171Z,25184.00
2018-06-21T06:11:06.387Z,22496.00
2018-06-21T06:12:06.638Z,15800.00
2018-06-21T06:13:06.867Z,22368.00
2018-06-21T06:14:07.114Z,22976.00
2018-06-21T06:15:07.347Z,14192.00
2018-06-21T06:16:07.586Z,21664.00
2018-06-21T06:17:07.837Z,21984.00
2018-06-21T06:18:08.061Z,20384.00
2018-06-21T06:19:08.302Z,13356.00
2018-06-21T06:20:08.560Z,13000.00
2018-06-21T06:21:08.784Z,16608.00
2018-06-21T06:22:09.021Z,21088.00
2018-06-21T06:23:09.262Z,18592.00
2018-06-21T06:24:09.500Z,16640.00
2018-06-21T06:25:09.742Z,20736.00
2018-06-21T06:26:09.979Z,20320.00
2018-06-21T06:27:10.222Z,19680.00
2018-06-21T06:28:10.462Z,13784.00
2018-06-21T06:29:10.702Z,13684.00
2018-06-21T06:30:10.945Z,18336.00
2018-06-21T06:31:11.182Z,12924.00
2018-06-21T06:32:11.425Z,18560.00
2018-06-21T06:33:11.660Z,17888.00
2018-06-21T06:34:11.898Z,18048.00
2018-06-21T06:35:12.144Z,18272.00
2018-06-21T06:36:12.392Z,17472.00
2018-06-21T06:37:12.628Z,16512.00
2018-06-21T06:38:12.851Z,17856.00
2018-06-21T06:39:13.095Z,17632.00
2018-06-21T06:40:13.333Z,17568.00
2018-06-21T06:41:13.581Z,17984.00
2018-06-21T06:42:13.809Z,18688.00
2018-06-21T06:43:14.053Z,18336.00
2018-06-21T06:44:14.292Z,19296.00
2018-06-21T06:45:14.535Z,19776.00
2018-06-21T06:46:14.840Z,20800.00
2018-06-21T06:47:15.022Z,20928.00
2018-06-21T06:48:15.259Z,19200.00
2018-06-21T06:49:15.493Z,15840.00
2018-06-21T06:50:15.734Z,15808.00
2018-06-21T06:51:15.976Z,13056.00
2018-06-21T06:52:16.213Z,12380.00
2018-06-21T06:53:16.454Z,13116.00
2018-06-21T06:54:16.749Z,11148.00
2018-06-21T06:55:16.942Z,11220.00
2018-06-21T06:56:17.178Z,11884.00
2018-06-21T06:57:17.417Z,11328.00
2018-06-21T06:58:17.656Z,11872.00
2018-06-21T06:59:17.895Z,13212.00
2018-06-21T07:00:18.135Z,12088.00
2018-06-21T07:01:18.374Z,13512.00
2018-06-21T07:02:18.617Z,13380.00
2018-06-21T07:03:18.855Z,11880.00
2018-06-21T07:04:19.092Z,14268.00
2018-06-21T07:05:19.332Z,12524.00
2018-06-21T07:06:19.571Z,11408.00
2018-06-21T07:07:19.808Z,10540.00
2018-06-21T07:08:20.057Z,10372.00
2018-06-21T07:09:20.288Z,10260.00
2018-06-21T07:10:20.525Z,11244.00
2018-06-21T07:11:20.761Z,10944.00
2018-06-21T07:12:20.999Z,9688.00
2018-06-21T07:13:21.241Z,9420.00
2018-06-21T07:14:21.546Z,9984.00
2018-06-21T07:15:21.715Z,10080.00
2018-06-21T07:16:21.953Z,9436.00
2018-06-21T07:17:22.194Z,9956.00
2018-06-21T07:18:22.431Z,10628.00
2018-06-21T07:19:22.679Z,11108.00
2018-06-21T07:20:22.915Z,10952.00
2018-06-21T07:21:23.143Z,10784.00
2018-06-21T07:22:23.390Z,11820.00
2018-06-21T07:23:23.625Z,11728.00
2018-06-21T07:24:23.861Z,11224.00
2018-06-21T07:25:24.097Z,11572.00
2018-06-21T07:26:24.338Z,11628.00
2018-06-21T07:27:24.573Z,11960.00
2018-06-21T07:28:24.839Z,12788.00
2018-06-21T07:29:25.042Z,14096.00
2018-06-21T07:30:25.293Z,14504.00
2018-06-21T07:31:25.521Z,13836.00
2018-06-21T07:32:25.758Z,14120.00
2018-06-21T07:33:26.029Z,13156.00
2018-06-21T07:34:26.234Z,13600.00
2018-06-21T07:35:26.469Z,13828.00
2018-06-21T07:36:26.705Z,14552.00
2018-06-21T07:37:26.939Z,14228.00
2018-06-21T07:38:27.172Z,14508.00
2018-06-21T07:39:27.432Z,12696.00
2018-06-21T07:40:27.670Z,12852.00
2018-06-21T07:41:27.908Z,11888.00
2018-06-21T07:42:28.147Z,12028.00
2018-06-21T07:43:28.386Z,12252.00
2018-06-21T07:44:28.616Z,12852.00
2018-06-21T07:45:28.851Z,12616.00
2018-06-21T07:46:29.092Z,12176.00
2018-06-21T07:47:29.328Z,12872.00
2018-06-21T07:48:29.565Z,14180.00
2018-06-21T07:49:29.801Z,14448.00
2018-06-21T07:50:30.038Z,12840.00
2018-06-21T07:51:30.276Z,14248.00
2018-06-21T07:52:30.514Z,14136.00
2018-06-21T07:53:30.751Z,15244.00
2018-06-21T07:54:30.987Z,13436.00
2018-06-21T07:55:31.224Z,14192.00
2018-06-21T07:56:31.463Z,13080.00
2018-06-21T07:57:31.700Z,13832.00
2018-06-21T07:58:31.937Z,12680.00
2018-06-21T07:59:32.175Z,13272.00
2018-06-21T08:00:32.413Z,13632.00
2018-06-21T08:01:32.652Z,14252.00
2018-06-21T08:02:32.890Z,14860.00
2018-06-21T08:03:33.126Z,15456.00
2018-06-21T08:04:33.361Z,14364.00
2018-06-21T08:05:33.599Z,13440.00
2018-06-21T08:06:33.834Z,13948.00
2018-06-21T08:07:34.082Z,13544.00
2018-06-21T08:08:34.309Z,12500.00
2018-06-21T08:09:34.548Z,14208.00
2018-06-21T08:10:34.785Z,14912.00
2018-06-21T08:11:35.022Z,14748.00
2018-06-21T08:12:35.260Z,14076.00
2018-06-21T08:13:35.500Z,13912.00
2018-06-21T08:14:35.744Z,13144.00
2018-06-21T08:15:35.979Z,12800.00
2018-06-21T08:16:36.215Z,12380.00
2018-06-21T08:17:36.457Z,12708.00
2018-06-21T08:18:36.692Z,12568.00
2018-06-21T08:19:36.929Z,12644.00
2018-06-21T08:20:37.163Z,14200.00
2018-06-21T08:21:37.400Z,14064.00
2018-06-21T08:22:37.641Z,12964.00
2018-06-21T08:23:37.878Z,13440.00
2018-06-21T08:24:38.117Z,13880.00
2018-06-21T08:25:38.357Z,13612.00
2018-06-21T08:26:38.606Z,15276.00
2018-06-21T08:27:38.855Z,15044.00
2018-06-21T08:28:39.060Z,14776.00
2018-06-21T08:29:39.298Z,14548.00
2018-06-21T08:30:39.535Z,14548.00
2018-06-21T08:31:39.770Z,14096.00
2018-06-21T08:32:39.998Z,14108.00
2018-06-21T08:33:40.239Z,14028.00
2018-06-21T08:34:40.472Z,14532.00
2018-06-21T08:35:40.709Z,15456.00
2018-06-21T08:36:40.942Z,15120.00
2018-06-21T08:37:41.183Z,13856.00
2018-06-21T08:38:41.422Z,12772.00
2018-06-21T08:39:41.652Z,11792.00
2018-06-21T08:40:41.891Z,11640.00
2018-06-21T08:41:42.130Z,11132.00
2018-06-21T08:42:42.358Z,10948.00
2018-06-21T08:43:42.594Z,11696.00
2018-06-21T08:44:42.832Z,10892.00
2018-06-21T08:45:43.092Z,10748.00
2018-06-21T08:46:43.301Z,11680.00
2018-06-21T08:47:43.537Z,11468.00
2018-06-21T08:48:43.772Z,11372.00
2018-06-21T08:49:44.006Z,12736.00
2018-06-21T08:50:44.240Z,11464.00
2018-06-21T08:51:44.480Z,12624.00
2018-06-21T08:52:44.717Z,13408.00
2018-06-21T08:53:44.951Z,12112.00
2018-06-21T08:54:45.189Z,12060.00
2018-06-21T08:55:45.431Z,11360.00
2018-06-21T08:56:45.666Z,11980.00
2018-06-21T08:57:45.904Z,12228.00
2018-06-21T08:58:46.144Z,11156.00
2018-06-21T08:59:46.379Z,9832.00
2018-06-21T09:00:46.617Z,8568.00
2018-06-21T09:01:46.852Z,7416.00
2018-06-21T09:02:47.088Z,6964.00
2018-06-21T09:03:47.347Z,7284.00
2018-06-21T09:04:47.568Z,6828.00
2018-06-21T09:05:47.798Z,5572.00
2018-06-21T09:06:48.033Z,5000.00
2018-06-21T09:07:48.270Z,4844.00
2018-06-21T09:08:48.510Z,4460.00
2018-06-21T09:09:48.736Z,3960.00
2018-06-21T09:10:48.969Z,3712.00
2018-06-21T09:11:49.206Z,3540.00
2018-06-21T09:12:49.438Z,3492.00
2018-06-21T09:13:49.674Z,3552.00
2018-06-21T09:14:49.908Z,3396.00
2018-06-21T09:15:50.147Z,3012.00
2018-06-21T09:16:50.381Z,2608.00
2018-06-21T09:17:50.621Z,2492.00
2018-06-21T09:18:50.856Z,2828.00
2018-06-21T09:19:51.095Z,3896.00
2018-06-21T09:20:51.332Z,5284.00
2018-06-21T09:21:51.565Z,6784.00
2018-06-21T09:22:51.791Z,8448.00
2018-06-21T09:23:52.045Z,9844.00
2018-06-21T09:24:52.278Z,11316.00
2018-06-21T09:25:52.514Z,12336.00
2018-06-21T09:26:52.745Z,12844.00
2018-06-21T09:27:52.981Z,13292.00
2018-06-21T09:28:53.215Z,13620.00
2018-06-21T09:29:53.452Z,14224.00
2018-06-21T09:30:53.686Z,15132.00
2018-06-21T09:31:53.922Z,17824.00
2018-06-21T09:32:54.154Z,17344.00
2018-06-21T09:33:54.405Z,15652.00
2018-06-21T09:34:54.626Z,15280.00
2018-06-21T09:35:54.858Z,14960.00
2018-06-21T09:36:55.098Z,14264.00
2018-06-21T09:37:55.334Z,13836.00
2018-06-21T09:38:55.572Z,12920.00
2018-06-21T09:39:55.804Z,11896.00
2018-06-21T09:40:56.042Z,10124.00
2018-06-21T09:41:56.333Z,8076.00
2018-06-21T09:42:56.513Z,7412.00
2018-06-21T09:44:03.820Z,7832.00
2018-06-21T09:44:56.978Z,8156.00
2018-06-21T09:45:57.215Z,8388.00
2018-06-21T09:46:57.472Z,8048.00
2018-06-21T09:47:57.681Z,7576.00
2018-06-21T09:48:57.916Z,7624.00
2018-06-21T09:49:58.155Z,8180.00
2018-06-21T09:50:58.392Z,8444.00
2018-06-21T09:51:58.621Z,8772.00
2018-06-21T09:52:58.853Z,8816.00
2018-06-21T09:53:59.088Z,8612.00
2018-06-21T09:54:59.323Z,8892.00
2018-06-21T09:55:59.615Z,10036.00
2018-06-21T09:56:59.792Z,11316.00
2018-06-21T09:58:00.029Z,11972.00
2018-06-21T09:59:00.268Z,11864.00
2018-06-21T10:00:00.499Z,11544.00
2018-06-21T10:01:00.736Z,11072.00
2018-06-21T10:02:00.972Z,10024.00
2018-06-21T10:03:01.209Z,8844.00
2018-06-21T10:04:01.450Z,8300.00
2018-06-21T10:05:01.681Z,8160.00
2018-06-21T10:06:01.915Z,7836.00
2018-06-21T10:07:02.186Z,7636.00
2018-06-21T10:08:02.386Z,7760.00
2018-06-21T10:09:02.624Z,8200.00
2018-06-21T10:10:02.857Z,8728.00
2018-06-21T10:11:03.100Z,9232.00
2018-06-21T10:12:03.325Z,9260.00
2018-06-21T10:13:03.561Z,8964.00
2018-06-21T10:14:03.795Z,8204.00
2018-06-21T10:15:04.034Z,7484.00
2018-06-21T10:16:04.271Z,6384.00
2018-06-21T10:17:04.496Z,4484.00
2018-06-21T10:18:04.737Z,2956.00
2018-06-21T10:19:04.969Z,2344.00
2018-06-21T10:20:05.207Z,2708.00
2018-06-21T10:21:05.439Z,3108.00
2018-06-21T10:22:05.679Z,3196.00
2018-06-21T10:23:05.951Z,3060.00
2018-06-21T10:24:07.112Z,3148.00
2018-06-21T10:25:06.346Z,3280.00
2018-06-21T10:26:06.599Z,3280.00
2018-06-21T10:27:06.819Z,3140.00
2018-06-21T10:28:07.053Z,2776.00
2018-06-21T10:29:07.286Z,3544.00
2018-06-21T10:30:07.524Z,4632.00
2018-06-21T10:31:07.756Z,5988.00
2018-06-21T10:32:07.991Z,7552.00
2018-06-21T10:33:08.228Z,9476.00
2018-06-21T10:34:08.462Z,9632.00
2018-06-21T10:35:08.730Z,8384.00
2018-06-21T10:36:08.936Z,9008.00
2018-06-21T10:37:09.167Z,9604.00
2018-06-21T10:38:09.406Z,9472.00
2018-06-21T10:39:09.648Z,9556.00
2018-06-21T10:40:09.884Z,10108.00
2018-06-21T10:41:10.112Z,10192.00
2018-06-21T10:42:10.343Z,9532.00
2018-06-21T10:43:10.580Z,8656.00
2018-06-21T10:44:10.814Z,8204.00
2018-06-21T10:45:11.049Z,8096.00
2018-06-21T10:46:11.273Z,8000.00
2018-06-21T10:47:11.516Z,7748.00
2018-06-21T10:48:11.747Z,7488.00
2018-06-21T10:49:11.999Z,7436.00
2018-06-21T10:50:12.214Z,7636.00
2018-06-21T10:51:12.446Z,7748.00
2018-06-21T10:52:12.684Z,7832.00
2018-06-21T10:53:12.917Z,7872.00
2018-06-21T10:54:13.155Z,7892.00
2018-06-21T10:55:13.393Z,7980.00
2018-06-21T10:56:13.624Z,8608.00
2018-06-21T10:57:13.857Z,9604.00
2018-06-21T10:58:14.097Z,10380.00
2018-06-21T10:59:14.320Z,11164.00
2018-06-21T11:00:14.567Z,12164.00
2018-06-21T11:01:14.798Z,13116.00
2018-06-21T11:02:15.033Z,13840.00
2018-06-21T11:03:15.268Z,16160.00
2018-06-21T11:04:15.504Z,16128.00
2018-06-21T11:05:15.736Z,17312.00
2018-06-21T11:06:15.970Z,16160.00
2018-06-21T11:07:16.206Z,17056.00
2018-06-21T11:08:16.441Z,17568.00
2018-06-21T11:09:16.679Z,18400.00
2018-06-21T11:10:16.915Z,17408.00
2018-06-21T11:11:17.151Z,16736.00
2018-06-21T11:12:17.383Z,16608.00
2018-06-21T11:13:17.619Z,16096.00
2018-06-21T11:14:17.852Z,15392.00
2018-06-21T11:15:18.088Z,14152.00
2018-06-21T11:16:18.323Z,13608.00
2018-06-21T11:17:18.553Z,12096.00
2018-06-21T11:18:18.790Z,10852.00
2018-06-21T11:19:19.024Z,11344.00
2018-06-21T11:20:19.261Z,11972.00
2018-06-21T11:21:19.557Z,12572.00
2018-06-21T11:22:19.738Z,13336.00
2018-06-21T11:23:19.974Z,13236.00
2018-06-21T11:24:20.210Z,12100.00
2018-06-21T11:25:20.448Z,11216.00
2018-06-21T11:26:20.686Z,11076.00
2018-06-21T11:27:20.930Z,11028.00
2018-06-21T11:28:21.155Z,10380.00
2018-06-21T11:29:21.389Z,9864.00
2018-06-21T11:30:21.625Z,9916.00
2018-06-21T11:31:21.861Z,10172.00
2018-06-21T11:32:22.098Z,9988.00
2018-06-21T11:33:22.334Z,9588.00
2018-06-21T11:34:22.568Z,9280.00
2018-06-21T11:35:22.807Z,8252.00
2018-06-21T11:36:23.043Z,9640.00
2018-06-21T11:37:23.278Z,8836.00
2018-06-21T11:38:23.515Z,10584.00
2018-06-21T11:39:23.758Z,10804.00
2018-06-21T11:40:23.993Z,10156.00
2018-06-21T11:41:24.233Z,10008.00
2018-06-21T11:42:24.471Z,9572.00
2018-06-21T11:43:24.703Z,9016.00
2018-06-21T11:44:24.937Z,9420.00
2018-06-21T11:45:25.169Z,9344.00
2018-06-21T11:46:25.407Z,9212.00
2018-06-21T11:47:25.640Z,8816.00
2018-06-21T11:48:25.880Z,9112.00
2018-06-21T11:49:26.111Z,9156.00
2018-06-21T11:50:26.348Z,9212.00
2018-06-21T11:51:26.580Z,9324.00
2018-06-21T11:52:26.816Z,9516.00
2018-06-21T11:53:27.050Z,9828.00
2018-06-21T11:54:27.287Z,10008.00
2018-06-21T11:55:27.524Z,10552.00
2018-06-21T11:56:27.776Z,11524.00
2018-06-21T11:57:28.007Z,9528.00
2018-06-21T11:58:28.259Z,9564.00
2018-06-21T11:59:28.477Z,9784.00
2018-06-21T12:00:28.714Z,10036.00
2018-06-21T12:01:28.947Z,10672.00
2018-06-21T12:02:29.182Z,10000.00
2018-06-21T12:03:29.563Z,8168.00
2018-06-21T12:04:29.656Z,10288.00
2018-06-21T12:05:29.890Z,7052.00
2018-06-21T12:06:30.125Z,9192.00
2018-06-21T12:07:30.359Z,7932.00
2018-06-21T12:08:30.628Z,7420.00
2018-06-21T12:09:30.857Z,8580.00
2018-06-21T12:10:31.094Z,8672.00
2018-06-21T12:11:31.330Z,8748.00
2018-06-21T12:12:31.577Z,8644.00
2018-06-21T12:13:31.800Z,8652.00